sensor_id;sensor_type;location;lat;lon;timestamp;temperature;humidity
69082;DHT22;56184;51.986;5.760;2022-09-09T00:04:28;15.70;97.60
69082;DHT22;56184;51.986;5.760;2022-09-09T00:09:50;15.70;98.50
69082;DHT22;56184;51.986;5.760;2022-09-09T00:12:32;15.70;97.90
69082;DHT22;56184;51.986;5.760;2022-09-09T00:15:12;15.70;98.40
69082;DHT22;56184;51.986;5.760;2022-09-09T00:17:45;15.70;98.30
69082;DHT22;56184;51.986;5.760;2022-09-09T00:20:36;15.70;98.40
69082;DHT22;56184;51.986;5.760;2022-09-09T00:23:30;15.80;98.90
69082;DHT22;56184;51.986;5.760;2022-09-09T00:31:27;15.70;98.30
69082;DHT22;56184;51.986;5.760;2022-09-09T00:34:11;15.70;98.10
69082;DHT22;56184;51.986;5.760;2022-09-09T00:36:50;15.70;98.20
69082;DHT22;56184;51.986;5.760;2022-09-09T00:39:52;15.80;97.10
69082;DHT22;56184;51.986;5.760;2022-09-09T00:42:24;15.70;97.50
69082;DHT22;56184;51.986;5.760;2022-09-09T00:45:28;15.70;96.70
69082;DHT22;56184;51.986;5.760;2022-09-09T00:47:57;15.70;97.70
69082;DHT22;56184;51.986;5.760;2022-09-09T00:53:39;15.60;97.60
69082;DHT22;56184;51.986;5.760;2022-09-09T00:58:36;15.60;97.50
69082;DHT22;56184;51.986;5.760;2022-09-09T01:01:12;15.50;97.70
69082;DHT22;56184;51.986;5.760;2022-09-09T01:06:14;15.50;97.30
69082;DHT22;56184;51.986;5.760;2022-09-09T01:17:03;15.30;97.90
69082;DHT22;56184;51.986;5.760;2022-09-09T01:27:48;15.20;98.00
69082;DHT22;56184;51.986;5.760;2022-09-09T01:30:17;15.20;97.90
69082;DHT22;56184;51.986;5.760;2022-09-09T01:32:58;15.20;97.80
69082;DHT22;56184;51.986;5.760;2022-09-09T01:35:42;15.10;97.50
69082;DHT22;56184;51.986;5.760;2022-09-09T01:38:09;15.10;97.80
69082;DHT22;56184;51.986;5.760;2022-09-09T01:40:35;15.10;98.10
69082;DHT22;56184;51.986;5.760;2022-09-09T01:43:01;15.00;97.50
69082;DHT22;56184;51.986;5.760;2022-09-09T01:45:29;15.00;97.40
69082;DHT22;56184;51.986;5.760;2022-09-09T01:47:59;15.00;97.60
69082;DHT22;56184;51.986;5.760;2022-09-09T01:50:26;15.00;97.30
69082;DHT22;56184;51.986;5.760;2022-09-09T01:52:58;14.90;97.40
69082;DHT22;56184;51.986;5.760;2022-09-09T01:55:30;14.90;97.80
69082;DHT22;56184;51.986;5.760;2022-09-09T01:58:11;14.90;97.90
69082;DHT22;56184;51.986;5.760;2022-09-09T02:00:48;14.90;97.60
69082;DHT22;56184;51.986;5.760;2022-09-09T02:03:25;14.80;97.70
69082;DHT22;56184;51.986;5.760;2022-09-09T02:08:38;14.80;97.90
69082;DHT22;56184;51.986;5.760;2022-09-09T02:11:18;14.80;98.00
69082;DHT22;56184;51.986;5.760;2022-09-09T02:13:51;14.70;98.10
69082;DHT22;56184;51.986;5.760;2022-09-09T02:16:46;14.70;97.60
69082;DHT22;56184;51.986;5.760;2022-09-09T02:19:14;14.70;97.50
69082;DHT22;56184;51.986;5.760;2022-09-09T02:21:43;14.60;97.60
69082;DHT22;56184;51.986;5.760;2022-09-09T02:24:11;14.60;97.60
69082;DHT22;56184;51.986;5.760;2022-09-09T02:26:40;14.60;97.80
69082;DHT22;56184;51.986;5.760;2022-09-09T02:29:14;14.50;97.80
69082;DHT22;56184;51.986;5.760;2022-09-09T02:31:42;14.60;97.90
69082;DHT22;56184;51.986;5.760;2022-09-09T02:34:10;14.60;97.80
69082;DHT22;56184;51.986;5.760;2022-09-09T02:36:39;14.50;98.30
69082;DHT22;56184;51.986;5.760;2022-09-09T02:39:08;14.50;97.90
69082;DHT22;56184;51.986;5.760;2022-09-09T02:41:37;14.50;97.50
69082;DHT22;56184;51.986;5.760;2022-09-09T02:44:30;14.50;97.70
69082;DHT22;56184;51.986;5.760;2022-09-09T02:47:25;14.40;98.30
69082;DHT22;56184;51.986;5.760;2022-09-09T02:50:02;14.40;98.20
69082;DHT22;56184;51.986;5.760;2022-09-09T02:52:49;14.30;97.40
69082;DHT22;56184;51.986;5.760;2022-09-09T02:55:57;14.40;98.20
69082;DHT22;56184;51.986;5.760;2022-09-09T02:58:23;14.30;98.10
69082;DHT22;56184;51.986;5.760;2022-09-09T03:00:51;14.30;98.40
69082;DHT22;56184;51.986;5.760;2022-09-09T03:03:19;14.30;98.30
69082;DHT22;56184;51.986;5.760;2022-09-09T03:05:45;14.30;98.50
69082;DHT22;56184;51.986;5.760;2022-09-09T03:08:12;14.30;98.10
69082;DHT22;56184;51.986;5.760;2022-09-09T03:10:38;14.30;98.00
69082;DHT22;56184;51.986;5.760;2022-09-09T03:13:04;14.20;98.10
69082;DHT22;56184;51.986;5.760;2022-09-09T03:15:32;14.20;98.40
69082;DHT22;56184;51.986;5.760;2022-09-09T03:18:01;14.20;98.40
69082;DHT22;56184;51.986;5.760;2022-09-09T03:20:28;14.20;98.60
69082;DHT22;56184;51.986;5.760;2022-09-09T03:22:55;14.20;98.60
69082;DHT22;56184;51.986;5.760;2022-09-09T03:25:21;14.20;98.80
69082;DHT22;56184;51.986;5.760;2022-09-09T03:27:52;14.20;99.00
69082;DHT22;56184;51.986;5.760;2022-09-09T03:30:21;14.20;98.60
69082;DHT22;56184;51.986;5.760;2022-09-09T03:32:47;14.20;98.20
69082;DHT22;56184;51.986;5.760;2022-09-09T03:35:16;14.20;98.40
69082;DHT22;56184;51.986;5.760;2022-09-09T03:37:42;14.20;98.90
69082;DHT22;56184;51.986;5.760;2022-09-09T03:40:08;14.20;98.90
69082;DHT22;56184;51.986;5.760;2022-09-09T03:42:36;14.20;98.80
69082;DHT22;56184;51.986;5.760;2022-09-09T03:45:03;14.30;98.40
69082;DHT22;56184;51.986;5.760;2022-09-09T03:47:33;14.30;98.50
69082;DHT22;56184;51.986;5.760;2022-09-09T03:49:59;14.30;98.70
69082;DHT22;56184;51.986;5.760;2022-09-09T03:52:29;14.40;98.80
69082;DHT22;56184;51.986;5.760;2022-09-09T03:54:58;14.40;98.90
69082;DHT22;56184;51.986;5.760;2022-09-09T03:57:27;14.50;99.20
69082;DHT22;56184;51.986;5.760;2022-09-09T03:59:52;14.40;99.40
69082;DHT22;56184;51.986;5.760;2022-09-09T04:02:18;14.50;99.30
69082;DHT22;56184;51.986;5.760;2022-09-09T04:04:46;14.50;99.50
69082;DHT22;56184;51.986;5.760;2022-09-09T04:07:12;14.50;99.10
69082;DHT22;56184;51.986;5.760;2022-09-09T04:09:38;14.50;99.00
69082;DHT22;56184;51.986;5.760;2022-09-09T04:12:04;14.50;98.60
69082;DHT22;56184;51.986;5.760;2022-09-09T04:14:30;14.50;98.40
69082;DHT22;56184;51.986;5.760;2022-09-09T04:16:55;14.50;98.10
69082;DHT22;56184;51.986;5.760;2022-09-09T04:19:22;14.50;97.40
69082;DHT22;56184;51.986;5.760;2022-09-09T04:21:51;14.50;98.40
69082;DHT22;56184;51.986;5.760;2022-09-09T04:24:23;14.50;98.00
69082;DHT22;56184;51.986;5.760;2022-09-09T04:26:50;14.50;98.40
69082;DHT22;56184;51.986;5.760;2022-09-09T04:29:15;14.50;98.50
69082;DHT22;56184;51.986;5.760;2022-09-09T04:31:41;14.50;99.10
69082;DHT22;56184;51.986;5.760;2022-09-09T04:34:08;14.50;99.70
69082;DHT22;56184;51.986;5.760;2022-09-09T04:36:34;14.50;99.80
69082;DHT22;56184;51.986;5.760;2022-09-09T04:39:00;14.50;99.80
69082;DHT22;56184;51.986;5.760;2022-09-09T04:41:27;14.60;99.60
69082;DHT22;56184;51.986;5.760;2022-09-09T04:43:52;14.60;99.60
69082;DHT22;56184;51.986;5.760;2022-09-09T04:46:19;14.60;99.30
69082;DHT22;56184;51.986;5.760;2022-09-09T04:48:45;14.60;99.50
69082;DHT22;56184;51.986;5.760;2022-09-09T04:51:13;14.60;99.90
69082;DHT22;56184;51.986;5.760;2022-09-09T04:53:39;14.60;99.40
69082;DHT22;56184;51.986;5.760;2022-09-09T04:56:11;14.60;99.10
69082;DHT22;56184;51.986;5.760;2022-09-09T04:58:37;14.70;98.20
69082;DHT22;56184;51.986;5.760;2022-09-09T05:01:08;14.80;97.80
69082;DHT22;56184;51.986;5.760;2022-09-09T05:03:34;14.90;98.80
69082;DHT22;56184;51.986;5.760;2022-09-09T05:06:10;14.90;99.30
69082;DHT22;56184;51.986;5.760;2022-09-09T05:08:37;14.90;99.60
69082;DHT22;56184;51.986;5.760;2022-09-09T05:11:12;14.90;99.90
69082;DHT22;56184;51.986;5.760;2022-09-09T05:13:38;14.90;98.90
69082;DHT22;56184;51.986;5.760;2022-09-09T05:16:04;14.90;98.00
69082;DHT22;56184;51.986;5.760;2022-09-09T05:18:29;14.90;99.00
69082;DHT22;56184;51.986;5.760;2022-09-09T05:20:59;15.00;98.40
69082;DHT22;56184;51.986;5.760;2022-09-09T05:23:25;15.00;97.50
69082;DHT22;56184;51.986;5.760;2022-09-09T05:25:55;15.10;98.50
69082;DHT22;56184;51.986;5.760;2022-09-09T05:28:26;15.00;99.00
69082;DHT22;56184;51.986;5.760;2022-09-09T05:30:59;15.00;99.00
69082;DHT22;56184;51.986;5.760;2022-09-09T05:33:26;15.00;98.90
69082;DHT22;56184;51.986;5.760;2022-09-09T05:36:06;15.10;98.40
69082;DHT22;56184;51.986;5.760;2022-09-09T05:38:34;15.10;98.50
69082;DHT22;56184;51.986;5.760;2022-09-09T05:41:00;15.10;99.00
69082;DHT22;56184;51.986;5.760;2022-09-09T05:43:28;15.10;98.20
69082;DHT22;56184;51.986;5.760;2022-09-09T05:46:03;15.10;98.10
69082;DHT22;56184;51.986;5.760;2022-09-09T05:48:30;15.10;98.60
69082;DHT22;56184;51.986;5.760;2022-09-09T05:50:57;15.10;98.50
69082;DHT22;56184;51.986;5.760;2022-09-09T05:53:25;15.20;98.30
69082;DHT22;56184;51.986;5.760;2022-09-09T05:55:57;15.10;97.80
69082;DHT22;56184;51.986;5.760;2022-09-09T05:58:23;15.10;98.30
69082;DHT22;56184;51.986;5.760;2022-09-09T06:00:49;15.10;99.00
69082;DHT22;56184;51.986;5.760;2022-09-09T06:03:15;15.20;98.90
69082;DHT22;56184;51.986;5.760;2022-09-09T06:05:42;15.20;98.70
69082;DHT22;56184;51.986;5.760;2022-09-09T06:08:07;15.20;97.80
69082;DHT22;56184;51.986;5.760;2022-09-09T06:10:33;15.30;98.20
69082;DHT22;56184;51.986;5.760;2022-09-09T06:12:59;15.30;98.30
69082;DHT22;56184;51.986;5.760;2022-09-09T06:15:25;15.30;98.40
69082;DHT22;56184;51.986;5.760;2022-09-09T06:17:55;15.30;98.70
69082;DHT22;56184;51.986;5.760;2022-09-09T06:20:21;15.40;99.10
69082;DHT22;56184;51.986;5.760;2022-09-09T06:22:47;15.40;98.30
69082;DHT22;56184;51.986;5.760;2022-09-09T06:25:14;15.50;99.00
69082;DHT22;56184;51.986;5.760;2022-09-09T06:27:39;15.50;97.40
69082;DHT22;56184;51.986;5.760;2022-09-09T06:30:06;15.60;98.20
69082;DHT22;56184;51.986;5.760;2022-09-09T06:32:33;15.50;99.10
69082;DHT22;56184;51.986;5.760;2022-09-09T06:34:59;15.50;98.30
69082;DHT22;56184;51.986;5.760;2022-09-09T06:37:26;15.60;97.90
69082;DHT22;56184;51.986;5.760;2022-09-09T06:39:52;15.50;98.00
69082;DHT22;56184;51.986;5.760;2022-09-09T06:42:20;15.60;98.70
69082;DHT22;56184;51.986;5.760;2022-09-09T06:44:45;15.60;98.10
69082;DHT22;56184;51.986;5.760;2022-09-09T06:47:11;15.60;98.60
69082;DHT22;56184;51.986;5.760;2022-09-09T06:49:36;15.70;98.50
69082;DHT22;56184;51.986;5.760;2022-09-09T06:52:02;15.80;97.30
69082;DHT22;56184;51.986;5.760;2022-09-09T06:54:28;15.90;98.20
69082;DHT22;56184;51.986;5.760;2022-09-09T06:56:53;15.90;97.50
69082;DHT22;56184;51.986;5.760;2022-09-09T06:59:19;16.00;97.20
69082;DHT22;56184;51.986;5.760;2022-09-09T07:01:46;16.00;96.00
69082;DHT22;56184;51.986;5.760;2022-09-09T07:04:12;16.00;95.40
69082;DHT22;56184;51.986;5.760;2022-09-09T07:06:42;16.00;98.20
69082;DHT22;56184;51.986;5.760;2022-09-09T07:09:13;16.00;97.90
69082;DHT22;56184;51.986;5.760;2022-09-09T07:11:42;16.10;97.20
69082;DHT22;56184;51.986;5.760;2022-09-09T07:14:09;16.20;97.10
69082;DHT22;56184;51.986;5.760;2022-09-09T07:16:34;16.30;97.10
69082;DHT22;56184;51.986;5.760;2022-09-09T07:19:03;16.30;96.90
69082;DHT22;56184;51.986;5.760;2022-09-09T07:21:30;16.30;96.10
69082;DHT22;56184;51.986;5.760;2022-09-09T07:23:56;16.30;97.60
69082;DHT22;56184;51.986;5.760;2022-09-09T07:26:25;16.40;96.40
69082;DHT22;56184;51.986;5.760;2022-09-09T07:28:51;16.50;96.80
69082;DHT22;56184;51.986;5.760;2022-09-09T07:31:19;16.60;98.20
69082;DHT22;56184;51.986;5.760;2022-09-09T07:33:46;16.70;97.80
69082;DHT22;56184;51.986;5.760;2022-09-09T07:36:18;16.80;95.80
69082;DHT22;56184;51.986;5.760;2022-09-09T07:38:55;16.90;95.90
69082;DHT22;56184;51.986;5.760;2022-09-09T07:41:24;17.00;97.10
69082;DHT22;56184;51.986;5.760;2022-09-09T07:43:51;17.10;96.90
69082;DHT22;56184;51.986;5.760;2022-09-09T07:46:19;17.00;95.70
69082;DHT22;56184;51.986;5.760;2022-09-09T07:48:51;17.10;95.70
69082;DHT22;56184;51.986;5.760;2022-09-09T07:51:26;17.20;96.10
69082;DHT22;56184;51.986;5.760;2022-09-09T07:53:54;17.20;95.20
69082;DHT22;56184;51.986;5.760;2022-09-09T07:56:20;17.20;94.50
69082;DHT22;56184;51.986;5.760;2022-09-09T07:58:49;17.40;94.90
69082;DHT22;56184;51.986;5.760;2022-09-09T08:01:17;17.50;94.90
69082;DHT22;56184;51.986;5.760;2022-09-09T08:03:47;17.60;94.20
69082;DHT22;56184;51.986;5.760;2022-09-09T08:06:17;17.70;94.40
69082;DHT22;56184;51.986;5.760;2022-09-09T08:08:42;17.60;93.40
69082;DHT22;56184;51.986;5.760;2022-09-09T08:11:13;17.60;94.10
69082;DHT22;56184;51.986;5.760;2022-09-09T08:13:40;17.70;93.60
69082;DHT22;56184;51.986;5.760;2022-09-09T08:16:12;17.60;94.00
69082;DHT22;56184;51.986;5.760;2022-09-09T08:18:38;17.70;94.40
69082;DHT22;56184;51.986;5.760;2022-09-09T08:21:15;17.80;94.00
69082;DHT22;56184;51.986;5.760;2022-09-09T08:23:44;17.80;93.80
69082;DHT22;56184;51.986;5.760;2022-09-09T08:26:19;17.80;94.30
69082;DHT22;56184;51.986;5.760;2022-09-09T08:28:53;17.90;94.70
69082;DHT22;56184;51.986;5.760;2022-09-09T08:31:22;17.90;92.80
69082;DHT22;56184;51.986;5.760;2022-09-09T08:33:48;17.90;93.30
69082;DHT22;56184;51.986;5.760;2022-09-09T08:36:15;17.90;93.40
69082;DHT22;56184;51.986;5.760;2022-09-09T08:38:42;18.00;92.40
69082;DHT22;56184;51.986;5.760;2022-09-09T08:41:23;17.90;91.80
69082;DHT22;56184;51.986;5.760;2022-09-09T08:44:10;17.90;93.70
69082;DHT22;56184;51.986;5.760;2022-09-09T08:52:42;17.90;93.00
69082;DHT22;56184;51.986;5.760;2022-09-09T08:55:27;17.80;92.40
69082;DHT22;56184;51.986;5.760;2022-09-09T08:57:55;17.80;92.60
69082;DHT22;56184;51.986;5.760;2022-09-09T09:00:21;17.80;92.70
69082;DHT22;56184;51.986;5.760;2022-09-09T09:08:28;17.90;92.80
69082;DHT22;56184;51.986;5.760;2022-09-09T09:10:58;18.10;92.00
69082;DHT22;56184;51.986;5.760;2022-09-09T09:13:39;18.20;92.40
69082;DHT22;56184;51.986;5.760;2022-09-09T09:16:33;18.20;91.20
69082;DHT22;56184;51.986;5.760;2022-09-09T09:18:59;18.30;90.50
69082;DHT22;56184;51.986;5.760;2022-09-09T09:23:59;18.20;91.00
69082;DHT22;56184;51.986;5.760;2022-09-09T09:26:35;18.20;91.80
69082;DHT22;56184;51.986;5.760;2022-09-09T09:29:10;18.10;91.70
69082;DHT22;56184;51.986;5.760;2022-09-09T09:31:37;18.10;91.60
69082;DHT22;56184;51.986;5.760;2022-09-09T09:34:02;18.10;91.60
69082;DHT22;56184;51.986;5.760;2022-09-09T09:36:40;18.10;91.30
69082;DHT22;56184;51.986;5.760;2022-09-09T09:39:06;18.20;91.50
69082;DHT22;56184;51.986;5.760;2022-09-09T09:41:41;18.30;91.70
69082;DHT22;56184;51.986;5.760;2022-09-09T09:46:52;18.40;91.10
69082;DHT22;56184;51.986;5.760;2022-09-09T09:49:18;18.70;90.90
69082;DHT22;56184;51.986;5.760;2022-09-09T09:51:44;19.00;90.90
69082;DHT22;56184;51.986;5.760;2022-09-09T09:56:39;19.10;89.10
69082;DHT22;56184;51.986;5.760;2022-09-09T09:59:06;19.10;88.70
69082;DHT22;56184;51.986;5.760;2022-09-09T10:01:44;19.00;89.30
69082;DHT22;56184;51.986;5.760;2022-09-09T10:04:15;19.00;89.40
69082;DHT22;56184;51.986;5.760;2022-09-09T10:06:41;18.90;90.30
69082;DHT22;56184;51.986;5.760;2022-09-09T10:20:51;18.70;90.70
69082;DHT22;56184;51.986;5.760;2022-09-09T10:26:39;18.70;89.70
69082;DHT22;56184;51.986;5.760;2022-09-09T10:32:16;18.70;89.70
69082;DHT22;56184;51.986;5.760;2022-09-09T10:37:30;18.60;87.70
69082;DHT22;56184;51.986;5.760;2022-09-09T10:42:46;18.50;89.30
69082;DHT22;56184;51.986;5.760;2022-09-09T10:45:26;18.50;89.50
69082;DHT22;56184;51.986;5.760;2022-09-09T10:48:02;18.60;89.00
69082;DHT22;56184;51.986;5.760;2022-09-09T10:50:50;18.70;89.10
69082;DHT22;56184;51.986;5.760;2022-09-09T10:53:37;18.70;89.50
69082;DHT22;56184;51.986;5.760;2022-09-09T10:56:09;18.70;90.00
69082;DHT22;56184;51.986;5.760;2022-09-09T10:58:41;18.70;88.40
69082;DHT22;56184;51.986;5.760;2022-09-09T11:01:27;18.70;90.00
69082;DHT22;56184;51.986;5.760;2022-09-09T11:04:02;18.70;90.60
69082;DHT22;56184;51.986;5.760;2022-09-09T11:06:40;18.60;91.30
69082;DHT22;56184;51.986;5.760;2022-09-09T11:09:15;18.60;90.90
69082;DHT22;56184;51.986;5.760;2022-09-09T11:11:56;18.60;91.20
69082;DHT22;56184;51.986;5.760;2022-09-09T11:17:04;18.40;91.90
69082;DHT22;56184;51.986;5.760;2022-09-09T11:22:15;18.00;93.50
69082;DHT22;56184;51.986;5.760;2022-09-09T11:24:58;18.10;94.70
69082;DHT22;56184;51.986;5.760;2022-09-09T11:28:04;18.30;94.10
69082;DHT22;56184;51.986;5.760;2022-09-09T11:30:36;18.80;95.20
69082;DHT22;56184;51.986;5.760;2022-09-09T11:38:27;20.80;91.40
69082;DHT22;56184;51.986;5.760;2022-09-09T11:40:56;21.20;91.60
69082;DHT22;56184;51.986;5.760;2022-09-09T11:43:28;21.10;90.80
69082;DHT22;56184;51.986;5.760;2022-09-09T11:45:58;21.00;87.20
69082;DHT22;56184;51.986;5.760;2022-09-09T11:48:45;20.80;88.50
69082;DHT22;56184;51.986;5.760;2022-09-09T11:51:25;20.80;88.50
69082;DHT22;56184;51.986;5.760;2022-09-09T11:53:57;20.60;86.30
69082;DHT22;56184;51.986;5.760;2022-09-09T11:56:41;20.40;86.70
69082;DHT22;56184;51.986;5.760;2022-09-09T12:01:57;20.30;87.70
69082;DHT22;56184;51.986;5.760;2022-09-09T12:09:29;20.30;88.50
69082;DHT22;56184;51.986;5.760;2022-09-09T12:14:54;20.00;86.60
69082;DHT22;56184;51.986;5.760;2022-09-09T12:17:22;20.00;89.60
69082;DHT22;56184;51.986;5.760;2022-09-09T12:19:48;19.90;89.00
69082;DHT22;56184;51.986;5.760;2022-09-09T12:22:44;19.80;89.30
69082;DHT22;56184;51.986;5.760;2022-09-09T12:30:51;19.90;90.30
69082;DHT22;56184;51.986;5.760;2022-09-09T12:33:19;19.90;89.00
69082;DHT22;56184;51.986;5.760;2022-09-09T12:35:51;19.90;89.40
69082;DHT22;56184;51.986;5.760;2022-09-09T12:38:29;19.70;88.10
69082;DHT22;56184;51.986;5.760;2022-09-09T12:40:57;19.90;89.20
69082;DHT22;56184;51.986;5.760;2022-09-09T12:43:25;19.90;88.00
69082;DHT22;56184;51.986;5.760;2022-09-09T12:46:02;19.90;88.80
69082;DHT22;56184;51.986;5.760;2022-09-09T12:48:38;19.70;88.50
69082;DHT22;56184;51.986;5.760;2022-09-09T12:51:16;19.60;89.90
69082;DHT22;56184;51.986;5.760;2022-09-09T12:53:44;19.60;88.70
69082;DHT22;56184;51.986;5.760;2022-09-09T12:56:20;19.50;90.10
69082;DHT22;56184;51.986;5.760;2022-09-09T12:58:48;19.50;89.30
69082;DHT22;56184;51.986;5.760;2022-09-09T13:01:29;19.70;88.20
69082;DHT22;56184;51.986;5.760;2022-09-09T13:03:55;19.90;89.20
69082;DHT22;56184;51.986;5.760;2022-09-09T13:06:31;19.90;87.30
69082;DHT22;56184;51.986;5.760;2022-09-09T13:08:59;20.20;89.30
69082;DHT22;56184;51.986;5.760;2022-09-09T13:13:59;21.70;83.20
69082;DHT22;56184;51.986;5.760;2022-09-09T13:16:29;21.60;83.30
69082;DHT22;56184;51.986;5.760;2022-09-09T13:19:00;21.80;81.50
69082;DHT22;56184;51.986;5.760;2022-09-09T13:21:37;21.70;80.70
69082;DHT22;56184;51.986;5.760;2022-09-09T13:24:33;21.60;82.80
69082;DHT22;56184;51.986;5.760;2022-09-09T13:29:51;21.30;82.30
69082;DHT22;56184;51.986;5.760;2022-09-09T13:32:24;21.10;83.20
69082;DHT22;56184;51.986;5.760;2022-09-09T13:35:00;20.90;82.40
69082;DHT22;56184;51.986;5.760;2022-09-09T13:37:36;20.80;83.10
69082;DHT22;56184;51.986;5.760;2022-09-09T13:40:03;20.70;83.20
69082;DHT22;56184;51.986;5.760;2022-09-09T13:42:34;20.60;83.80
69082;DHT22;56184;51.986;5.760;2022-09-09T13:45:34;20.50;85.30
69082;DHT22;56184;51.986;5.760;2022-09-09T13:48:09;20.40;83.50
69082;DHT22;56184;51.986;5.760;2022-09-09T13:50:35;20.50;84.50
69082;DHT22;56184;51.986;5.760;2022-09-09T13:53:00;20.50;82.90
69082;DHT22;56184;51.986;5.760;2022-09-09T13:55:27;20.50;82.80
69082;DHT22;56184;51.986;5.760;2022-09-09T14:00:21;20.30;85.30
69082;DHT22;56184;51.986;5.760;2022-09-09T14:02:47;20.40;85.10
69082;DHT22;56184;51.986;5.760;2022-09-09T14:05:13;20.70;83.60
69082;DHT22;56184;51.986;5.760;2022-09-09T14:07:40;21.00;82.50
69082;DHT22;56184;51.986;5.760;2022-09-09T14:10:07;20.90;81.00
69082;DHT22;56184;51.986;5.760;2022-09-09T14:12:33;20.50;81.20
69082;DHT22;56184;51.986;5.760;2022-09-09T14:14:58;20.30;82.60
69082;DHT22;56184;51.986;5.760;2022-09-09T14:17:27;20.30;82.40
69082;DHT22;56184;51.986;5.760;2022-09-09T14:19:55;20.20;83.30
69082;DHT22;56184;51.986;5.760;2022-09-09T14:22:21;20.30;85.10
69082;DHT22;56184;51.986;5.760;2022-09-09T14:24:47;20.30;83.10
69082;DHT22;56184;51.986;5.760;2022-09-09T14:27:13;20.30;83.80
69082;DHT22;56184;51.986;5.760;2022-09-09T14:29:39;20.20;86.50
69082;DHT22;56184;51.986;5.760;2022-09-09T14:32:05;20.20;85.70
69082;DHT22;56184;51.986;5.760;2022-09-09T14:34:30;20.20;89.70
69082;DHT22;56184;51.986;5.760;2022-09-09T14:36:58;20.30;88.90
69082;DHT22;56184;51.986;5.760;2022-09-09T14:39:23;20.50;88.90
69082;DHT22;56184;51.986;5.760;2022-09-09T14:41:49;20.60;88.30
69082;DHT22;56184;51.986;5.760;2022-09-09T14:44:14;20.90;84.50
69082;DHT22;56184;51.986;5.760;2022-09-09T14:46:41;21.10;83.80
69082;DHT22;56184;51.986;5.760;2022-09-09T14:49:08;21.30;86.80
69082;DHT22;56184;51.986;5.760;2022-09-09T14:51:36;21.30;83.80
69082;DHT22;56184;51.986;5.760;2022-09-09T14:54:02;21.10;85.50
69082;DHT22;56184;51.986;5.760;2022-09-09T14:56:32;20.90;83.40
69082;DHT22;56184;51.986;5.760;2022-09-09T14:59:13;20.60;85.00
69082;DHT22;56184;51.986;5.760;2022-09-09T15:01:43;20.40;87.60
69082;DHT22;56184;51.986;5.760;2022-09-09T15:04:12;20.30;84.70
69082;DHT22;56184;51.986;5.760;2022-09-09T15:06:40;20.20;87.50
69082;DHT22;56184;51.986;5.760;2022-09-09T15:09:09;20.10;86.50
69082;DHT22;56184;51.986;5.760;2022-09-09T15:11:36;20.00;87.50
69082;DHT22;56184;51.986;5.760;2022-09-09T15:14:09;19.90;88.10
69082;DHT22;56184;51.986;5.760;2022-09-09T15:16:59;19.80;88.00
69082;DHT22;56184;51.986;5.760;2022-09-09T15:19:34;19.70;89.20
69082;DHT22;56184;51.986;5.760;2022-09-09T15:22:00;19.50;90.00
69082;DHT22;56184;51.986;5.760;2022-09-09T15:24:26;19.40;90.20
69082;DHT22;56184;51.986;5.760;2022-09-09T15:26:53;19.30;90.30
69082;DHT22;56184;51.986;5.760;2022-09-09T15:29:19;19.20;90.80
69082;DHT22;56184;51.986;5.760;2022-09-09T15:31:46;19.00;91.60
69082;DHT22;56184;51.986;5.760;2022-09-09T15:34:24;18.90;92.20
69082;DHT22;56184;51.986;5.760;2022-09-09T15:37:05;18.70;94.20
69082;DHT22;56184;51.986;5.760;2022-09-09T15:39:32;18.50;96.20
69082;DHT22;56184;51.986;5.760;2022-09-09T15:41:58;18.50;96.40
69082;DHT22;56184;51.986;5.760;2022-09-09T15:44:27;18.50;97.20
69082;DHT22;56184;51.986;5.760;2022-09-09T15:46:58;18.60;99.10
69082;DHT22;56184;51.986;5.760;2022-09-09T15:49:25;18.80;99.90
69082;DHT22;56184;51.986;5.760;2022-09-09T15:51:58;18.70;98.80
69082;DHT22;56184;51.986;5.760;2022-09-09T15:54:31;18.60;96.10
69082;DHT22;56184;51.986;5.760;2022-09-09T15:57:07;18.60;96.50
69082;DHT22;56184;51.986;5.760;2022-09-09T15:59:36;18.60;98.50
69082;DHT22;56184;51.986;5.760;2022-09-09T16:02:03;18.60;98.10
69082;DHT22;56184;51.986;5.760;2022-09-09T16:04:30;18.70;98.50
69082;DHT22;56184;51.986;5.760;2022-09-09T16:06:58;18.60;97.60
69082;DHT22;56184;51.986;5.760;2022-09-09T16:09:26;18.50;96.50
69082;DHT22;56184;51.986;5.760;2022-09-09T16:11:52;18.40;97.00
69082;DHT22;56184;51.986;5.760;2022-09-09T16:14:18;18.40;97.20
69082;DHT22;56184;51.986;5.760;2022-09-09T16:16:44;18.40;98.30
69082;DHT22;56184;51.986;5.760;2022-09-09T16:19:11;18.40;97.80
69082;DHT22;56184;51.986;5.760;2022-09-09T16:21:40;18.40;99.40
69082;DHT22;56184;51.986;5.760;2022-09-09T16:24:09;18.40;98.60
69082;DHT22;56184;51.986;5.760;2022-09-09T16:26:36;18.40;98.00
69082;DHT22;56184;51.986;5.760;2022-09-09T16:29:03;18.40;98.80
69082;DHT22;56184;51.986;5.760;2022-09-09T16:31:30;18.40;98.00
69082;DHT22;56184;51.986;5.760;2022-09-09T16:33:57;18.40;98.10
69082;DHT22;56184;51.986;5.760;2022-09-09T16:36:25;18.50;98.40
69082;DHT22;56184;51.986;5.760;2022-09-09T16:38:56;18.60;98.70
69082;DHT22;56184;51.986;5.760;2022-09-09T16:41:29;18.80;98.40
69082;DHT22;56184;51.986;5.760;2022-09-09T16:43:57;19.10;98.20
69082;DHT22;56184;51.986;5.760;2022-09-09T16:46:25;19.30;97.20
69082;DHT22;56184;51.986;5.760;2022-09-09T16:49:04;19.40;97.00
69082;DHT22;56184;51.986;5.760;2022-09-09T16:51:36;19.40;95.50
69082;DHT22;56184;51.986;5.760;2022-09-09T16:54:04;19.30;94.90
69082;DHT22;56184;51.986;5.760;2022-09-09T16:56:32;19.30;95.00
69082;DHT22;56184;51.986;5.760;2022-09-09T16:59:01;19.30;94.50
69082;DHT22;56184;51.986;5.760;2022-09-09T17:01:30;19.30;95.50
69082;DHT22;56184;51.986;5.760;2022-09-09T17:03:59;19.30;95.20
69082;DHT22;56184;51.986;5.760;2022-09-09T17:06:30;19.30;93.70
69082;DHT22;56184;51.986;5.760;2022-09-09T17:08:57;19.20;94.50
69082;DHT22;56184;51.986;5.760;2022-09-09T17:11:23;19.10;93.60
69082;DHT22;56184;51.986;5.760;2022-09-09T17:13:49;19.10;94.00
69082;DHT22;56184;51.986;5.760;2022-09-09T17:16:17;19.00;94.00
69082;DHT22;56184;51.986;5.760;2022-09-09T17:18:43;19.00;93.70
69082;DHT22;56184;51.986;5.760;2022-09-09T17:21:16;18.90;94.70
69082;DHT22;56184;51.986;5.760;2022-09-09T17:23:46;18.80;93.60
69082;DHT22;56184;51.986;5.760;2022-09-09T17:26:15;18.70;93.40
69082;DHT22;56184;51.986;5.760;2022-09-09T17:28:41;18.70;93.60
69082;DHT22;56184;51.986;5.760;2022-09-09T17:31:09;18.60;94.60
69082;DHT22;56184;51.986;5.760;2022-09-09T17:33:37;18.50;94.30
69082;DHT22;56184;51.986;5.760;2022-09-09T17:36:09;18.40;94.70
69082;DHT22;56184;51.986;5.760;2022-09-09T17:38:44;18.30;94.70
69082;DHT22;56184;51.986;5.760;2022-09-09T17:43:38;18.20;94.60
69082;DHT22;56184;51.986;5.760;2022-09-09T17:46:16;18.10;94.50
69082;DHT22;56184;51.986;5.760;2022-09-09T17:48:43;18.10;94.20
69082;DHT22;56184;51.986;5.760;2022-09-09T17:51:13;18.10;94.50